Time;durP1;ratioP1;P1;durP2;ratioP2;P2;SDS_P1;SDS_P2;PMS_P1;PMS_P2;Temp;Humidity;BMP_temperature;BMP_pressure;BME280_temperature;BME280_humidity;BME280_pressure;Samples;Min_cycle;Max_cycle;Signal;HPM_P1;HPM_P2
2021/09/07 00:01:02;;;;;;;21.85;20.08;;;;;;;15.75;83.42;100763.88;10341169;28;20046;-74
2021/09/07 00:06:04;;;;;;;22.70;21.05;;;;;;;15.64;83.86;100768.78;10314491;28;20051;-75
2021/09/07 00:11:06;;;;;;;21.13;19.63;;;;;;;15.66;84.39;100779.31;10299776;28;20046;-75
2021/09/07 00:16:07;;;;;;;21.05;19.45;;;;;;;15.72;83.88;100771.13;10299710;28;20050;-75
2021/09/07 00:21:09;;;;;;;22.30;20.60;;;;;;;15.60;84.43;100773.28;10298948;28;20416;-74
2021/09/07 00:26:10;;;;;;;21.10;19.50;;;;;;;15.66;84.68;100781.94;10298867;28;20559;-74
2021/09/07 00:31:12;;;;;;;24.08;22.15;;;;;;;15.55;85.71;100796.47;10298292;28;20050;-73
2021/09/07 00:36:14;;;;;;;24.63;22.40;;;;;;;15.44;86.93;100793.38;10298974;28;20050;-73
2021/09/07 00:41:15;;;;;;;24.13;22.08;;;;;;;15.64;86.14;100789.97;10297853;28;20050;-75
2021/09/07 00:46:17;;;;;;;24.52;22.58;;;;;;;16.04;84.51;100785.66;10298216;28;20054;-75
2021/09/07 00:51:21;;;;;;;24.02;21.90;;;;;;;16.08;84.07;100781.97;10298393;28;20062;-74
2021/09/07 00:56:24;;;;;;;23.25;21.55;;;;;;;16.05;84.26;100777.63;10312922;28;20097;-74
2021/09/07 01:01:25;;;;;;;22.13;20.50;;;;;;;15.83;85.55;100768.88;10313679;28;20051;-75
2021/09/07 01:06:28;;;;;;;24.58;22.85;;;;;;;15.51;87.14;100748.97;10297845;28;20390;-74
2021/09/07 01:11:29;;;;;;;24.60;22.35;;;;;;;15.63;86.71;100736.06;10298482;28;20054;-74
2021/09/07 01:16:32;;;;;;;24.00;21.95;;;;;;;15.45;87.57;100746.53;10295968;28;20051;-74
2021/09/07 01:21:35;;;;;;;25.25;23.13;;;;;;;15.37;88.46;100755.69;10296661;28;20121;-75
2021/09/07 01:26:37;;;;;;;24.48;22.77;;;;;;;15.74;87.00;100740.94;10279259;28;20074;-74
2021/09/07 01:31:38;;;;;;;23.33;21.50;;;;;;;15.51;87.59;100741.88;10280309;28;20476;-74
2021/09/07 01:36:40;;;;;;;22.77;21.08;;;;;;;15.85;86.46;100740.53;10297317;28;20047;-74
2021/09/07 01:41:42;;;;;;;22.85;21.15;;;;;;;15.58;87.22;100753.06;10294903;28;20060;-75
2021/09/07 01:46:44;;;;;;;25.05;22.90;;;;;;;15.51;88.00;100754.28;10295995;28;20042;-74
2021/09/07 01:51:47;;;;;;;23.65;21.77;;;;;;;15.60;87.45;100753.88;10295461;28;20456;-74
2021/09/07 01:56:48;;;;;;;22.35;20.83;;;;;;;15.70;86.55;100736.69;10295500;28;20051;-74
2021/09/07 02:01:51;;;;;;;24.67;22.48;;;;;;;15.67;86.94;100733.31;10295233;28;20082;-75
2021/09/07 02:06:53;;;;;;;21.40;19.95;;;;;;;15.59;86.88;100734.47;10295347;28;20444;-74
2021/09/07 02:11:55;;;;;;;25.08;23.15;;;;;;;15.53;87.61;100740.00;10294610;28;20086;-75
2021/09/07 02:16:57;;;;;;;22.67;21.02;;;;;;;15.44;88.91;100740.38;10309623;28;20051;-75
2021/09/07 02:21:59;;;;;;;22.38;20.67;;;;;;;15.53;88.01;100736.50;10295148;28;20398;-74
2021/09/07 02:27:00;;;;;;;24.38;22.38;;;;;;;15.49;87.77;100729.59;10294859;28;20035;-74
2021/09/07 02:32:03;;;;;;;20.77;19.38;;;;;;;15.49;88.29;100737.56;10298657;28;20053;-74
2021/09/07 02:37:06;;;;;;;25.88;23.58;;;;;;;15.35;89.45;100744.28;10303804;28;20040;-75
2021/09/07 02:42:09;;;;;;;25.52;23.55;;;;;;;15.41;89.19;100744.97;10304223;28;20500;-74
2021/09/07 02:47:11;;;;;;;23.63;21.92;;;;;;;15.51;88.49;100747.19;10303438;28;20452;-75
2021/09/07 02:52:14;;;;;;;24.48;22.75;;;;;;;15.45;87.90;100752.75;10303530;28;20039;-75
2021/09/07 02:57:15;;;;;;;23.95;21.98;;;;;;;15.39;88.45;100755.63;10303116;28;20046;-74
2021/09/07 03:02:17;;;;;;;24.23;22.20;;;;;;;15.51;88.39;100749.81;10284848;28;20413;-75
2021/09/07 03:07:20;;;;;;;25.83;23.92;;;;;;;15.55;88.18;100751.44;10302094;28;20113;-74
2021/09/07 03:12:22;;;;;;;23.02;21.20;;;;;;;15.57;88.19;100748.69;10301715;28;20062;-74
2021/09/07 03:17:24;;;;;;;25.83;23.88;;;;;;;15.41;89.38;100756.44;10286043;28;20469;-75
2021/09/07 03:22:29;;;;;;;25.25;23.08;;;;;;;15.30;90.22;100764.78;10301247;28;20035;-75
2021/09/07 03:27:31;;;;;;;25.88;23.95;;;;;;;15.28;90.46;100771.09;10301643;28;20098;-73
2021/09/07 03:32:36;;;;;;;24.88;22.85;;;;;;;15.53;88.81;100760.34;10299706;28;20050;-74
2021/09/07 03:37:39;;;;;;;22.67;21.02;;;;;;;15.56;88.19;100770.84;10302121;28;20093;-75
2021/09/07 03:42:41;;;;;;;24.27;22.55;;;;;;;15.31;90.01;100766.50;10301417;28;20039;-74
2021/09/07 03:47:45;;;;;;;23.35;21.17;;;;;;;15.25;90.70;100773.84;10301214;28;20038;-74
2021/09/07 03:52:47;;;;;;;24.20;22.50;;;;;;;15.25;90.98;100782.66;10316397;28;20093;-75
2021/09/07 03:57:49;;;;;;;23.33;21.63;;;;;;;15.38;90.32;100781.25;10300669;28;20038;-74
2021/09/07 04:02:51;;;;;;;25.02;23.10;;;;;;;15.56;89.98;100760.22;10300274;28;20495;-74
2021/09/07 04:07:53;;;;;;;25.63;23.85;;;;;;;15.37;90.45;100765.41;10300969;28;20479;-73
2021/09/07 04:12:55;;;;;;;26.83;24.67;;;;;;;15.28;91.36;100771.09;10299502;28;20039;-73
2021/09/07 04:17:57;;;;;;;26.13;23.55;;;;;;;15.52;89.98;100767.44;10299939;28;20489;-74
2021/09/07 04:23:02;;;;;;;25.95;23.55;;;;;;;15.43;89.67;100769.59;10299597;28;20501;-74
2021/09/07 04:28:04;;;;;;;24.92;22.67;;;;;;;15.39;89.79;100780.31;10298664;28;20559;-74
2021/09/07 04:33:05;;;;;;;27.35;24.77;;;;;;;15.26;89.64;100784.38;10298495;28;20043;-75
2021/09/07 04:38:07;;;;;;;21.75;20.15;;;;;;;15.30;88.02;100780.69;10297808;28;20050;-75
2021/09/07 04:43:09;;;;;;;22.77;21.27;;;;;;;15.27;87.22;100801.13;10297574;28;20047;-73
2021/09/07 04:48:10;;;;;;;21.50;19.73;;;;;;;15.33;86.27;100787.66;10312647;28;20046;-74
2021/09/07 04:53:12;;;;;;;19.80;18.50;;;;;;;15.49;85.62;100787.88;10296941;28;20050;-73
2021/09/07 04:58:14;;;;;;;20.48;19.08;;;;;;;15.37;86.36;100799.84;10297166;28;20052;-73
2021/09/07 05:03:16;;;;;;;20.40;18.80;;;;;;;15.39;86.62;100812.09;10299149;28;20035;-74
2021/09/07 05:08:18;;;;;;;20.90;19.50;;;;;;;15.40;86.21;100812.97;10298263;28;20559;-74
2021/09/07 05:13:20;;;;;;;21.23;19.73;;;;;;;15.49;85.40;100819.69;10296543;28;20110;-74
2021/09/07 05:18:21;;;;;;;21.95;19.88;;;;;;;15.62;84.04;100812.97;10296288;28;20055;-74
2021/09/07 05:23:23;;;;;;;20.58;19.23;;;;;;;15.53;84.96;100816.00;10298209;28;20097;-74
2021/09/07 05:28:24;;;;;;;21.90;20.33;;;;;;;15.55;84.53;100822.97;10298873;28;20055;-74
2021/09/07 05:33:46;;;;;;;20.17;18.67;;;;;;;15.62;84.47;100824.44;10298599;28;20429;-74
2021/09/07 05:38:48;;;;;;;20.00;18.70;;;;;;;15.67;84.94;100826.06;10298433;28;20063;-76
2021/09/07 05:43:50;;;;;;;21.33;19.80;;;;;;;15.67;84.67;100831.38;10298901;28;20065;-75
2021/09/07 05:48:52;;;;;;;18.77;17.55;;;;;;;15.74;84.15;100825.78;10313455;28;20445;-75
2021/09/07 05:53:54;;;;;;;20.15;18.77;;;;;;;15.89;83.58;100833.13;10318740;28;20066;-79
2021/09/07 05:58:57;;;;;;;20.20;18.80;;;;;;;15.98;81.79;100833.63;10308926;28;20074;-79
2021/09/07 06:04:00;;;;;;;21.85;20.30;;;;;;;15.97;81.63;100832.78;10310744;28;20062;-79
2021/09/07 06:09:02;;;;;;;20.77;19.08;;;;;;;16.11;80.82;100829.56;10309884;28;20142;-78
2021/09/07 06:14:04;;;;;;;22.35;20.50;;;;;;;16.02;80.83;100837.88;10311276;28;20054;-78
2021/09/07 06:19:05;;;;;;;20.48;18.52;;;;;;;16.19;80.71;100846.00;10310866;28;20062;-78
2021/09/07 06:24:07;;;;;;;21.88;20.10;;;;;;;16.09;81.22;100847.34;10309426;28;20047;-78
2021/09/07 06:29:09;;;;;;;22.00;20.30;;;;;;;16.17;81.39;100853.19;10305918;28;20046;-78
2021/09/07 06:34:11;;;;;;;19.67;18.05;;;;;;;16.24;81.30;100862.59;10322967;28;20054;-78
2021/09/07 06:39:13;;;;;;;20.85;19.27;;;;;;;16.27;80.81;100867.78;10310816;28;20477;-79
2021/09/07 06:44:14;;;;;;;20.98;19.38;;;;;;;16.52;79.69;100875.56;10307670;28;20039;-78
2021/09/07 06:49:16;;;;;;;22.23;20.20;;;;;;;16.50;80.79;100873.91;10315953;28;20043;-78
2021/09/07 06:54:18;;;;;;;23.73;21.42;;;;;;;16.43;81.04;100886.56;10335850;28;20035;-78
2021/09/07 06:59:20;;;;;;;20.60;18.77;;;;;;;16.64;80.51;100888.31;10303088;28;20047;-78
2021/09/07 07:04:21;;;;;;;21.80;19.75;;;;;;;16.73;79.38;100892.38;10334550;28;20050;-78
2021/09/07 07:09:23;;;;;;;21.63;19.67;;;;;;;16.70;80.02;100891.63;10343519;28;20122;-78
2021/09/07 07:14:25;;;;;;;20.65;18.88;;;;;;;16.75;81.05;100892.31;10343451;28;20044;-78
2021/09/07 07:19:27;;;;;;;18.77;17.20;;;;;;;16.65;81.44;100891.84;10365145;28;20051;-79
2021/09/07 07:24:29;;;;;;;23.10;20.95;;;;;;;16.77;79.67;100888.66;10352778;28;20149;-79
2021/09/07 07:29:34;;;;;;;21.15;19.52;;;;;;;16.76;77.96;100891.38;10354325;28;20047;-80
2021/09/07 07:34:36;;;;;;;21.88;19.90;;;;;;;17.27;73.43;100890.00;10355787;28;20038;-78
2021/09/07 07:39:38;;;;;;;21.42;19.98;;;;;;;16.97;74.92;100893.09;10354630;28;20074;-80
2021/09/07 07:44:40;;;;;;;20.40;18.90;;;;;;;17.00;74.35;100898.28;10349455;28;20046;-78
2021/09/07 07:49:42;;;;;;;26.65;18.45;;;;;;;17.13;75.22;100894.16;10350307;28;20050;-77
2021/09/07 07:54:45;;;;;;;21.25;18.38;;;;;;;17.53;71.00;100897.63;10346288;28;20054;-78
2021/09/07 07:59:47;;;;;;;19.10;17.60;;;;;;;17.82;68.94;100900.72;10345055;28;20042;-78
2021/09/07 08:04:48;;;;;;;18.63;17.02;;;;;;;17.74;69.56;100910.84;10347612;28;20455;-77
2021/09/07 08:09:50;;;;;;;16.77;15.40;;;;;;;18.07;67.56;100916.38;10343123;28;20047;-78
2021/09/07 08:14:52;;;;;;;17.75;16.17;;;;;;;17.94;68.46;100923.22;10343077;28;20039;-79
2021/09/07 08:19:54;;;;;;;20.00;17.95;;;;;;;17.82;68.31;100916.69;10347230;28;20049;-79
2021/09/07 08:24:55;;;;;;;19.15;17.27;;;;;;;17.90;68.74;100917.19;10306984;28;20106;-77
2021/09/07 08:29:57;;;;;;;18.40;16.67;;;;;;;18.26;66.07;100918.97;10342307;28;20412;-77
2021/09/07 08:34:58;;;;;;;18.58;16.70;;;;;;;18.25;66.81;100918.13;10354741;28;20081;-77
2021/09/07 08:40:00;;;;;;;17.70;16.20;;;;;;;18.46;66.95;100921.50;10340600;28;20480;-78
2021/09/07 08:45:04;;;;;;;17.48;16.13;;;;;;;18.41;65.16;100931.50;10305788;28;20039;-77
2021/09/07 08:50:06;;;;;;;17.88;16.02;;;;;;;18.56;66.44;100928.09;10301012;28;20376;-78
2021/09/07 08:55:10;;;;;;;17.90;16.30;;;;;;;18.65;64.77;100926.75;10302222;28;20050;-79
2021/09/07 09:00:12;;;;;;;17.40;15.93;;;;;;;18.94;63.82;100927.06;10297345;28;20046;-75
2021/09/07 09:05:25;;;;;;;18.40;16.92;;;;;;;18.92;64.71;100936.97;10294700;28;20051;-75
2021/09/07 09:10:27;;;;;;;17.50;15.85;;;;;;;18.93;62.92;100936.88;10296818;28;20078;-75
2021/09/07 09:15:29;;;;;;;14.95;13.93;;;;;;;18.94;63.04;100940.38;10296569;28;20047;-74
2021/09/07 09:20:31;;;;;;;15.52;14.18;;;;;;;19.14;63.14;100940.22;10296326;28;20362;-75
2021/09/07 09:25:38;;;;;;;14.75;13.70;;;;;;;19.55;61.44;100948.66;10295746;28;20074;-75
2021/09/07 09:30:44;;;;;;;12.77;11.80;;;;;;;19.68;62.38;100946.22;10295888;28;20402;-75
2021/09/07 09:35:48;;;;;;;17.45;16.05;;;;;;;20.44;58.84;100940.97;10296301;28;20034;-75
2021/09/07 09:40:55;;;;;;;12.82;11.90;;;;;;;20.95;57.71;100928.19;10295909;28;20058;-74
2021/09/07 09:45:57;;;;;;;12.85;11.98;;;;;;;21.28;56.87;100925.25;10297672;28;20055;-75
2021/09/07 09:50:59;;;;;;;13.18;12.18;;;;;;;21.29;56.49;100926.09;10294960;28;20065;-74
2021/09/07 09:56:01;;;;;;;14.93;13.82;;;;;;;21.73;54.00;100927.81;10295844;28;20077;-74
2021/09/07 10:01:05;;;;;;;14.88;13.55;;;;;;;21.86;54.85;100926.91;10295992;28;20050;-73
2021/09/07 10:06:07;;;;;;;12.48;11.48;;;;;;;22.46;54.07;100914.13;10295093;28;20421;-74
2021/09/07 10:11:20;;;;;;;13.07;12.05;;;;;;;22.46;51.60;100900.72;10295218;28;20098;-74
2021/09/07 10:16:43;;;;;;;12.18;11.18;;;;;;;22.38;52.62;100907.44;10294744;28;20046;-74
2021/09/07 10:26:47;;;;;;;13.85;12.75;;;;;;;22.42;52.77;100900.94;10294766;28;20047;-74
2021/09/07 10:31:54;;;;;;;14.05;12.98;;;;;;;22.35;51.66;100898.75;10307829;28;20054;-74
2021/09/07 10:37:07;;;;;;;14.80;13.63;;;;;;;22.90;50.05;100895.03;10294344;28;20485;-74
2021/09/07 10:42:33;;;;;;;14.10;12.70;;;;;;;23.32;50.71;100885.75;10293528;28;20039;-73
2021/09/07 10:47:43;;;;;;;13.80;12.70;;;;;;;23.09;48.51;100890.09;10293367;28;20043;-74
2021/09/07 10:52:45;;;;;;;12.98;11.88;;;;;;;23.00;50.23;100885.38;10295672;28;20046;-74
2021/09/07 10:57:52;;;;;;;13.88;12.63;;;;;;;23.55;48.86;100891.28;10317237;28;20062;-73
2021/09/07 11:03:07;;;;;;;11.32;10.45;;;;;;;23.67;48.32;100890.44;10301401;28;20042;-73
2021/09/07 11:08:18;;;;;;;12.15;11.25;;;;;;;23.94;47.50;100892.94;10300997;28;20114;-73
2021/09/07 11:13:24;;;;;;;11.73;10.82;;;;;;;23.93;45.56;100880.47;10301145;28;20133;-72
2021/09/07 11:18:31;;;;;;;11.27;10.50;;;;;;;23.99;47.33;100881.84;10300711;28;20045;-73
2021/09/07 11:23:37;;;;;;;12.50;11.60;;;;;;;23.67;47.02;100871.66;10300684;28;20448;-73
2021/09/07 11:28:44;;;;;;;11.48;10.63;;;;;;;24.18;46.91;100868.75;10300793;28;20046;-72
2021/09/07 11:33:46;;;;;;;11.07;10.27;;;;;;;23.74;45.02;100867.56;10299671;28;20129;-73
2021/09/07 11:38:50;;;;;;;11.60;10.60;;;;;;;23.60;47.04;100875.75;10300080;28;20102;-73
2021/09/07 11:43:56;;;;;;;12.85;11.75;;;;;;;23.25;47.28;100870.25;10299897;28;20075;-74
2021/09/07 11:49:06;;;;;;;10.85;9.95;;;;;;;23.66;46.48;100862.75;10300107;28;20469;-74
2021/09/07 11:54:18;;;;;;;10.25;9.45;;;;;;;24.04;46.15;100868.91;10283453;28;20047;-73
2021/09/07 11:59:19;;;;;;;10.32;9.40;;;;;;;24.07;45.83;100866.00;10299353;28;20529;-72
2021/09/07 12:04:23;;;;;;;9.10;8.40;;;;;;;23.75;46.71;100858.53;10298611;28;20074;-72
2021/09/07 12:09:29;;;;;;;10.45;9.65;;;;;;;23.68;46.16;100857.25;10300720;28;20066;-73
2021/09/07 12:14:39;;;;;;;10.07;9.13;;;;;;;23.19;47.85;100862.63;10299931;28;20489;-75
2021/09/07 12:19:51;;;;;;;10.25;9.45;;;;;;;23.44;46.65;100867.09;10315506;28;20060;-73
2021/09/07 12:25:02;;;;;;;9.18;8.48;;;;;;;23.72;46.06;100855.22;10301368;28;20058;-74
2021/09/07 12:30:22;;;;;;;9.38;8.68;;;;;;;23.05;47.38;100853.72;10300627;28;20570;-73
2021/09/07 12:35:31;;;;;;;10.93;9.93;;;;;;;23.21;47.68;100850.81;10299324;28;20678;-74
2021/09/07 12:40:32;;;;;;;9.13;8.27;;;;;;;23.54;46.77;100855.56;10297594;28;20515;-74
2021/09/07 12:45:54;;;;;;;9.02;8.32;;;;;;;23.23;47.15;100856.06;10295952;28;20039;-74
2021/09/07 12:50:58;;;;;;;7.68;6.95;;;;;;;23.10;46.14;100843.53;10297406;28;20047;-74
2021/09/07 12:56:01;;;;;;;7.63;6.90;;;;;;;23.25;46.17;100849.63;10294919;28;20053;-74
2021/09/07 13:01:05;;;;;;;8.07;7.55;;;;;;;23.15;45.60;100840.50;10296490;28;20389;-74
2021/09/07 13:06:09;;;;;;;7.35;6.80;;;;;;;23.04;44.68;100843.13;10297138;28;20050;-74
2021/09/07 13:11:15;;;;;;;8.60;7.82;;;;;;;22.59;46.98;100835.47;10296215;28;20047;-74
2021/09/07 13:16:20;;;;;;;7.55;6.97;;;;;;;22.67;47.75;100822.41;10295589;28;20113;-75
2021/09/07 13:21:22;;;;;;;10.95;9.82;;;;;;;22.42;46.64;100827.75;10296222;28;20381;-75
2021/09/07 13:26:23;;;;;;;8.98;8.20;;;;;;;22.62;47.50;100826.34;10310095;28;20404;-75
2021/09/07 13:31:25;;;;;;;7.75;7.15;;;;;;;22.55;46.74;100814.38;10296252;28;20121;-74
2021/09/07 13:36:27;;;;;;;7.30;6.80;;;;;;;22.54;48.06;100809.97;10296591;28;20054;-75
2021/09/07 13:41:29;;;;;;;11.35;9.43;;;;;;;22.45;49.23;100810.63;10295001;28;20402;-75
2021/09/07 13:46:30;;;;;;;11.65;10.40;;;;;;;22.32;48.68;100797.22;10295093;28;20050;-75
2021/09/07 13:51:32;;;;;;;12.18;11.07;;;;;;;22.13;48.91;100806.50;10295372;28;20039;-76
2021/09/07 13:56:34;;;;;;;10.90;10.10;;;;;;;22.12;49.12;100802.09;10295039;28;20047;-73
2021/09/07 14:01:35;;;;;;;8.88;8.18;;;;;;;21.82;48.93;100791.59;10295272;28;20130;-74
2021/09/07 14:06:37;;;;;;;9.35;8.65;;;;;;;22.01;48.45;100791.22;10295123;28;20047;-74
2021/09/07 14:11:40;;;;;;;8.98;8.18;;;;;;;22.14;47.98;100780.59;10296603;28;20042;-74
2021/09/07 14:16:42;;;;;;;9.18;8.48;;;;;;;22.13;48.55;100779.72;10294520;28;20054;-74
2021/09/07 14:21:43;;;;;;;9.65;8.80;;;;;;;22.14;49.18;100785.94;10294594;28;20051;-75
2021/09/07 14:26:45;;;;;;;10.65;9.85;;;;;;;22.30;48.75;100780.38;10327195;28;20046;-74
2021/09/07 14:31:47;;;;;;;11.70;10.77;;;;;;;22.06;49.90;100782.88;10343966;28;20412;-75
2021/09/07 14:36:49;;;;;;;12.85;11.70;;;;;;;21.98;49.75;100766.47;10345322;28;20046;-75
2021/09/07 14:41:51;;;;;;;11.18;10.27;;;;;;;21.95;50.93;100780.91;10360245;28;20361;-74
2021/09/07 14:46:52;;;;;;;11.27;10.38;;;;;;;21.83;51.03;100768.38;10360659;28;20050;-76
2021/09/07 14:51:54;;;;;;;11.85;10.95;;;;;;;21.89;51.04;100776.00;10345320;28;20050;-75
2021/09/07 14:56:56;;;;;;;8.38;7.78;;;;;;;22.10;49.27;100774.53;10360652;28;20050;-74
2021/09/07 15:01:58;;;;;;;8.82;8.15;;;;;;;22.30;47.82;100766.97;10346801;28;20034;-75
2021/09/07 15:07:02;;;;;;;8.00;7.30;;;;;;;21.99;48.94;100774.41;10343565;28;20093;-75
2021/09/07 15:12:06;;;;;;;6.93;6.43;;;;;;;21.96;48.79;100766.59;10340033;28;20039;-76
2021/09/07 15:17:08;;;;;;;6.80;6.30;;;;;;;21.91;48.09;100768.69;10342131;28;20125;-76
2021/09/07 15:22:09;;;;;;;7.00;6.30;;;;;;;21.76;49.38;100765.25;10342713;28;20042;-75
2021/09/07 15:27:11;;;;;;;7.60;7.00;;;;;;;21.87;48.37;100759.19;10341234;28;20046;-74
2021/09/07 15:32:13;;;;;;;7.00;6.50;;;;;;;21.86;50.28;100762.81;10344144;28;20416;-76
2021/09/07 15:37:14;;;;;;;8.35;7.65;;;;;;;21.62;50.80;100759.97;10342338;28;20054;-75
2021/09/07 15:42:16;;;;;;;8.02;7.18;;;;;;;21.61;51.01;100768.94;10358066;28;20428;-75
2021/09/07 15:47:18;;;;;;;7.70;7.10;;;;;;;21.45;51.67;100766.41;10341550;28;20125;-75
2021/09/07 15:52:19;;;;;;;8.60;7.80;;;;;;;21.42;51.09;100766.59;10341288;28;20496;-76
2021/09/07 15:57:21;;;;;;;8.40;7.70;;;;;;;21.34;51.64;100763.59;10356883;28;20383;-74
2021/09/07 16:02:23;;;;;;;8.25;7.63;;;;;;;21.14;52.70;100756.81;10340534;28;20101;-76
2021/09/07 16:07:25;;;;;;;9.27;8.35;;;;;;;21.24;52.13;100762.41;10341192;28;20050;-75
2021/09/07 16:12:28;;;;;;;7.72;7.00;;;;;;;21.24;52.48;100754.41;10340889;28;20077;-75
2021/09/07 16:17:30;;;;;;;8.50;7.75;;;;;;;21.09;52.49;100751.75;10355932;28;20072;-75
2021/09/07 16:22:32;;;;;;;8.82;8.23;;;;;;;20.99;53.19;100755.13;10341390;28;20038;-74
2021/09/07 16:27:34;;;;;;;8.05;7.45;;;;;;;20.77;53.90;100745.81;10338756;28;20082;-75
2021/09/07 16:32:36;;;;;;;8.57;7.88;;;;;;;20.70;54.24;100740.94;10310556;28;20051;-75
2021/09/07 16:37:39;;;;;;;7.93;7.32;;;;;;;20.58;54.27;100732.72;10298846;28;20093;-76
2021/09/07 16:42:41;;;;;;;7.63;7.13;;;;;;;20.37;55.82;100732.22;10302234;28;20081;-76
2021/09/07 16:47:43;;;;;;;8.32;7.72;;;;;;;20.31;56.09;100737.06;10300172;28;20106;-76
2021/09/07 16:52:48;;;;;;;8.02;7.32;;;;;;;20.19;56.54;100735.13;10297839;28;20045;-76
2021/09/07 16:57:49;;;;;;;7.65;6.93;;;;;;;20.14;57.23;100728.28;10299240;28;20105;-78
2021/09/07 17:02:51;;;;;;;14.30;13.30;;;;;;;20.08;58.45;100731.31;10298693;28;20043;-77
2021/09/07 17:08:02;;;;;;;9.90;9.20;;;;;;;19.98;60.73;100734.63;10297328;28;20051;-77
2021/09/07 17:13:04;;;;;;;8.70;8.02;;;;;;;19.84;61.06;100728.31;10299084;28;20458;-76
2021/09/07 17:18:06;;;;;;;9.63;9.02;;;;;;;19.60;62.03;100727.03;10313946;28;20412;-76
2021/09/07 17:23:09;;;;;;;8.13;7.53;;;;;;;19.46;63.28;100729.66;10299022;28;20043;-76
2021/09/07 17:28:16;;;;;;;10.27;9.43;;;;;;;19.51;63.14;100730.25;10298790;28;20050;-76
2021/09/07 17:38:40;;;;;;;11.05;10.25;;;;;;;19.35;63.17;100730.28;10299231;28;20074;-76
2021/09/07 17:43:42;;;;;;;13.15;9.90;;;;;;;19.02;64.42;100730.38;10298565;28;20055;-75
2021/09/07 17:48:44;;;;;;;10.48;9.68;;;;;;;18.90;64.57;100738.09;10299090;28;20045;-76
2021/09/07 17:53:45;;;;;;;10.60;9.88;;;;;;;18.72;65.44;100724.91;10337554;23;20410;-69
2021/09/07 17:58:47;;;;;;;10.35;9.55;;;;;;;18.70;65.38;100742.78;10375004;28;20041;-70
2021/09/07 18:03:49;;;;;;;11.55;10.57;;;;;;;18.58;66.28;100741.63;10373766;28;20042;-70
2021/09/07 18:08:52;;;;;;;11.75;10.75;;;;;;;18.38;66.98;100748.00;10373052;28;20077;-71
2021/09/07 18:13:54;;;;;;;11.85;10.70;;;;;;;18.24;67.89;100750.50;10374995;28;20577;-71
2021/09/07 18:18:56;;;;;;;12.77;11.55;;;;;;;18.15;68.27;100752.75;10375568;28;20137;-70
2021/09/07 18:23:58;;;;;;;11.82;10.57;;;;;;;18.01;68.80;100757.88;10374329;28;20042;-70
2021/09/07 18:28:59;;;;;;;11.82;10.93;;;;;;;17.80;69.43;100761.66;10374007;28;20133;-70
2021/09/07 18:34:07;;;;;;;11.67;10.73;;;;;;;17.80;69.54;100761.66;10372894;28;20057;-70
2021/09/07 18:39:09;;;;;;;11.90;10.90;;;;;;;17.70;69.71;100765.66;10375215;28;20536;-71
2021/09/07 18:44:11;;;;;;;11.32;10.52;;;;;;;17.60;70.29;100766.13;10372790;28;20050;-71
2021/09/07 18:49:13;;;;;;;12.32;11.30;;;;;;;17.61;70.34;100770.50;10374038;28;20098;-70
2021/09/07 18:54:14;;;;;;;11.80;10.85;;;;;;;17.51;70.33;100784.31;10375051;28;20068;-71
2021/09/07 18:59:16;;;;;;;11.88;10.98;;;;;;;17.10;72.17;100787.16;10373538;28;20049;-70
2021/09/07 19:04:18;;;;;;;12.43;11.52;;;;;;;17.13;72.39;100777.25;10372914;28;20144;-71
2021/09/07 19:09:21;;;;;;;12.52;11.60;;;;;;;17.09;72.41;100778.34;10373834;28;20069;-71
2021/09/07 19:14:22;;;;;;;11.57;10.57;;;;;;;16.88;73.13;100777.53;10377904;28;20044;-70
2021/09/07 19:19:25;;;;;;;11.90;10.98;;;;;;;16.98;73.25;100766.47;10382039;28;20412;-70
2021/09/07 19:24:27;;;;;;;12.07;11.18;;;;;;;16.86;73.07;100779.38;10381584;28;20042;-70
2021/09/07 19:29:29;;;;;;;13.30;12.00;;;;;;;16.68;73.39;100774.00;10379579;28;20038;-72
2021/09/07 19:34:31;;;;;;;13.45;12.35;;;;;;;16.59;74.23;100776.16;10380799;28;20209;-71
2021/09/07 19:39:33;;;;;;;13.10;12.00;;;;;;;16.56;73.86;100775.44;10380727;28;20050;-71
2021/09/07 19:44:34;;;;;;;13.07;12.18;;;;;;;16.51;74.14;100775.66;10380291;28;20038;-71
2021/09/07 19:49:36;;;;;;;12.98;12.07;;;;;;;16.35;74.71;100777.25;10379295;28;20046;-70
2021/09/07 19:54:37;;;;;;;12.60;11.80;;;;;;;16.22;75.60;100768.97;10378989;28;20075;-70
2021/09/07 19:59:39;;;;;;;12.95;11.95;;;;;;;16.02;76.34;100775.09;10379137;28;20050;-70
2021/09/07 20:04:41;;;;;;;13.48;12.48;;;;;;;15.85;77.54;100774.97;10379357;28;20053;-72
2021/09/07 20:09:42;;;;;;;13.68;12.65;;;;;;;15.62;78.70;100786.47;10378831;28;20132;-71
2021/09/07 20:14:44;;;;;;;14.05;12.95;;;;;;;15.63;78.54;100783.78;10378637;28;20042;-70
2021/09/07 20:19:45;;;;;;;15.10;13.70;;;;;;;15.60;79.05;100786.56;10378552;28;20081;-71
2021/09/07 20:24:47;;;;;;;13.50;12.40;;;;;;;15.58;79.03;100791.06;10378048;28;20042;-71
2021/09/07 20:29:48;;;;;;;14.30;13.20;;;;;;;15.48;79.96;100788.81;10377513;28;20053;-71
2021/09/07 20:34:50;;;;;;;13.93;12.95;;;;;;;15.39;80.09;100792.69;10376458;28;20077;-70
2021/09/07 20:39:51;;;;;;;16.00;14.70;;;;;;;15.31;80.75;100787.69;10376700;28;20108;-71
2021/09/07 20:44:53;;;;;;;14.77;13.77;;;;;;;15.31;80.50;100793.00;10376247;28;20112;-72
2021/09/07 20:49:54;;;;;;;15.65;14.40;;;;;;;15.18;81.87;100791.75;10376252;28;20052;-70
2021/09/07 20:54:56;;;;;;;16.17;14.88;;;;;;;15.18;81.96;100793.53;10375796;28;20045;-71
2021/09/07 20:59:58;;;;;;;15.45;14.13;;;;;;;15.27;81.58;100790.53;10375770;28;20488;-70
2021/09/07 21:04:59;;;;;;;14.77;13.70;;;;;;;15.13;81.64;100789.28;10376445;28;20041;-71
2021/09/07 21:10:01;;;;;;;16.88;15.25;;;;;;;14.99;82.57;100807.47;10376039;28;20045;-70
2021/09/07 21:15:03;;;;;;;13.82;12.82;;;;;;;14.96;82.13;100790.84;10358215;28;20049;-70
2021/09/07 21:20:05;;;;;;;16.38;14.82;;;;;;;15.05;81.64;100787.84;10376296;28;20050;-70
2021/09/07 21:25:08;;;;;;;15.18;14.07;;;;;;;15.05;81.89;100785.19;10375164;28;20414;-70
2021/09/07 21:30:10;;;;;;;16.65;15.35;;;;;;;14.96;82.03;100794.34;10377384;28;20041;-70
2021/09/07 21:35:12;;;;;;;14.82;13.65;;;;;;;14.91;81.73;100796.31;10374924;28;20518;-70
2021/09/07 21:40:13;;;;;;;15.45;14.25;;;;;;;14.82;82.38;100791.38;10374881;28;20495;-70
2021/09/07 21:45:15;;;;;;;17.30;16.00;;;;;;;14.82;82.38;100801.94;10374526;28;20092;-70
2021/09/07 21:50:17;;;;;;;18.08;16.60;;;;;;;14.77;82.88;100795.97;10373933;28;20045;-70
2021/09/07 21:55:18;;;;;;;17.65;16.25;;;;;;;14.81;82.47;100795.78;10374508;28;20496;-70
2021/09/07 22:00:20;;;;;;;16.55;15.10;;;;;;;14.68;82.64;100791.88;10374961;28;20096;-70
2021/09/07 22:05:22;;;;;;;17.48;15.95;;;;;;;14.83;82.27;100782.50;10374626;28;20487;-70
2021/09/07 22:10:24;;;;;;;17.48;16.05;;;;;;;14.60;82.51;100786.84;10373926;28;20095;-70
2021/09/07 22:15:27;;;;;;;15.50;14.23;;;;;;;14.50;82.88;100788.13;10374034;28;20455;-71
2021/09/07 22:20:28;;;;;;;16.15;14.85;;;;;;;14.42;82.91;100784.84;10374003;28;20172;-71
2021/09/07 22:25:31;;;;;;;17.35;15.88;;;;;;;14.28;83.88;100781.84;10372647;28;20099;-71
2021/09/07 22:30:34;;;;;;;16.85;15.43;;;;;;;14.20;83.97;100775.94;10374050;28;20121;-71
2021/09/07 22:35:36;;;;;;;15.93;14.60;;;;;;;14.16;83.58;100787.53;10373527;28;20061;-71
2021/09/07 22:40:38;;;;;;;18.92;17.42;;;;;;;14.18;83.46;100791.88;10356145;28;20045;-71
2021/09/07 22:45:40;;;;;;;16.42;15.13;;;;;;;14.20;nan;100779.44;10375510;28;20046;-71
2021/09/07 22:50:42;;;;;;;17.45;15.98;;;;;;;14.12;83.67;100784.13;10380855;28;20507;-71
2021/09/07 22:55:45;;;;;;;17.27;15.70;;;;;;;14.06;83.74;100782.56;10380429;28;20088;-72